Aviation Digital Data Service (ADDS)

Output produced by METARs form (0141 UTC 20 April 2014)
found at http://aviationweather.gov/adds/metars/
 
KRUT 192331Z 2000/2024 36005KT P6SM SKC 
     FM200600 VRB03KT P6SM SKC 
     FM201500 14006KT P6SM SCT250 AMD LTD TO CLD VIS AND WIND